Time;durP1;ratioP1;P1;durP2;ratioP2;P2;SDS_P1;SDS_P2;PMS_P1;PMS_P2;Temp;Humidity;BMP_temperature;BMP_pressure;BME280_temperature;BME280_humidity;BME280_pressure;Samples;Min_cycle;Max_cycle;Signal;HPM_P1;HPM_P2
2021/04/05 00:01:38;;;;;;;33.30;19.08;;;;;;;7.99;54.16;100210.75;5050683;28;20033;-65
2021/04/05 00:04:04;;;;;;;35.05;20.55;;;;;;;8.04;53.06;100198.50;5049727;28;20708;-65
2021/04/05 00:06:29;;;;;;;35.22;19.95;;;;;;;8.33;52.91;100187.78;5049513;28;20025;-65
2021/04/05 00:08:55;;;;;;;32.03;18.52;;;;;;;8.70;51.32;100185.72;5050488;28;20044;-66
2021/04/05 00:11:20;;;;;;;31.55;18.67;;;;;;;8.46;51.98;100171.91;5050495;28;20033;-65
2021/04/05 00:13:46;;;;;;;32.85;19.00;;;;;;;8.24;53.17;100171.19;5050813;28;20554;-66
2021/04/05 00:16:16;;;;;;;28.85;18.27;;;;;;;8.48;52.04;100167.50;5049755;28;20119;-66
2021/04/05 00:18:41;;;;;;;30.38;19.27;;;;;;;8.45;52.51;100139.50;5051365;28;20155;-66
2021/04/05 00:21:27;;;;;;;34.40;18.45;;;;;;;7.86;53.23;100142.56;5050416;28;20111;-66
2021/04/05 00:23:52;;;;;;;28.63;18.67;;;;;;;7.98;53.33;100133.75;5045333;28;20025;-65
2021/04/05 00:26:19;;;;;;;35.78;21.60;;;;;;;8.19;52.86;100126.56;5048982;28;20025;-66
2021/04/05 00:28:45;;;;;;;33.35;21.33;;;;;;;8.07;53.04;100125.78;5049619;28;20090;-66
2021/04/05 00:31:11;;;;;;;31.48;20.17;;;;;;;8.00;53.65;100116.19;5050127;28;20029;-65
2021/04/05 00:33:36;;;;;;;37.20;21.40;;;;;;;8.21;52.58;100109.06;5050192;28;20384;-66
2021/04/05 00:36:02;;;;;;;34.30;20.88;;;;;;;8.40;51.90;100114.16;5052910;28;20056;-65
2021/04/05 00:38:27;;;;;;;35.42;21.10;;;;;;;8.44;52.31;100105.34;5053846;28;20024;-66
2021/04/05 00:41:06;;;;;;;37.60;21.27;;;;;;;7.92;53.55;100097.91;5052247;28;20028;-66
2021/04/05 00:43:33;;;;;;;33.80;19.17;;;;;;;7.97;52.68;100089.97;5052181;28;20060;-66
2021/04/05 00:45:59;;;;;;;32.85;19.77;;;;;;;8.17;52.72;100088.94;5053178;28;20025;-65
2021/04/05 00:48:25;;;;;;;37.50;20.58;;;;;;;8.24;52.50;100077.50;5054418;28;20025;-65
2021/04/05 00:50:53;;;;;;;32.47;19.30;;;;;;;8.29;52.46;100067.81;5053790;28;20396;-65
2021/04/05 00:53:25;;;;;;;31.60;19.02;;;;;;;8.17;52.92;100054.81;5054179;28;20025;-66
2021/04/05 00:55:50;;;;;;;35.40;19.38;;;;;;;8.40;51.70;100043.19;5053942;28;20094;-66
2021/04/05 00:58:17;;;;;;;34.38;19.88;;;;;;;8.75;51.14;100046.34;5053686;28;20037;-66
2021/04/05 01:00:47;;;;;;;33.15;20.67;;;;;;;8.79;51.04;100035.78;5053471;28;20033;-66
2021/04/05 01:03:15;;;;;;;30.70;17.73;;;;;;;8.77;51.07;100048.06;5054443;28;20384;-65
2021/04/05 01:05:41;;;;;;;32.85;19.25;;;;;;;8.26;51.61;100043.31;5052360;28;20044;-66
2021/04/05 01:08:09;;;;;;;28.73;17.23;;;;;;;8.47;51.66;100035.22;5052477;28;20024;-66
2021/04/05 01:10:35;;;;;;;29.88;17.10;;;;;;;8.55;51.18;100019.41;5035675;28;20031;-65
2021/04/05 01:13:00;;;;;;;33.95;18.95;;;;;;;8.52;51.20;100014.16;5052399;28;20033;-66
2021/04/05 01:15:25;;;;;;;31.10;17.27;;;;;;;8.47;51.68;100000.16;5053707;28;20020;-66
2021/04/05 01:17:51;;;;;;;32.55;19.38;;;;;;;8.29;51.78;99986.38;5053426;28;20064;-65
2021/04/05 01:20:17;;;;;;;32.20;18.63;;;;;;;8.74;51.00;99977.13;5052146;28;20037;-65
2021/04/05 01:22:44;;;;;;;32.17;18.38;;;;;;;8.66;51.08;99985.09;5051776;28;20055;-65
2021/04/05 01:25:11;;;;;;;30.95;18.45;;;;;;;8.54;51.17;99965.06;5050650;28;20040;-65
2021/04/05 01:27:37;;;;;;;32.67;18.02;;;;;;;8.71;51.03;99956.13;5051552;28;20071;-65
2021/04/05 01:30:30;;;;;;;30.95;18.17;;;;;;;8.34;51.64;99946.91;5053472;28;20033;-65
2021/04/05 01:33:21;;;;;;;31.45;17.48;;;;;;;8.47;51.66;99934.47;5052855;28;20043;-66
2021/04/05 01:36:02;;;;;;;34.08;19.98;;;;;;;8.17;52.08;99919.06;5068415;28;20219;-66
2021/04/05 01:38:33;;;;;;;32.13;19.45;;;;;;;8.18;51.34;99910.31;5052122;28;20086;-65
2021/04/05 01:41:01;;;;;;;29.83;18.60;;;;;;;8.23;52.35;99909.38;5051991;28;20025;-65
2021/04/05 01:43:26;;;;;;;33.17;17.38;;;;;;;8.16;52.40;99900.69;5052394;28;20033;-65
2021/04/05 01:45:54;;;;;;;29.63;17.52;;;;;;;8.19;51.53;99884.88;5050770;28;20021;-65
2021/04/05 01:48:24;;;;;;;30.98;18.27;;;;;;;8.34;51.91;99875.97;5051815;28;20384;-65
2021/04/05 01:50:50;;;;;;;30.58;17.60;;;;;;;7.94;52.39;99864.19;5053020;28;20049;-65
2021/04/05 01:53:19;;;;;;;27.05;15.68;;;;;;;8.09;52.35;99864.00;5053041;28;20024;-65
2021/04/05 01:55:45;;;;;;;31.45;17.92;;;;;;;8.13;52.29;99867.44;5051511;28;20024;-65
2021/04/05 01:58:11;;;;;;;27.13;17.33;;;;;;;8.17;52.35;99868.28;5051631;28;20108;-65
2021/04/05 02:00:38;;;;;;;29.20;17.75;;;;;;;8.29;52.30;99876.00;5050921;28;20124;-66
2021/04/05 02:03:08;;;;;;;29.23;17.90;;;;;;;8.36;51.81;99857.56;5053049;28;20033;-65
2021/04/05 02:05:36;;;;;;;30.48;16.45;;;;;;;8.41;51.88;99859.22;5051779;28;20033;-66
2021/04/05 02:08:02;;;;;;;27.17;15.57;;;;;;;8.44;51.64;99856.53;5051641;28;20021;-65
2021/04/05 02:10:27;;;;;;;27.23;14.85;;;;;;;8.13;52.98;99853.47;5050777;28;20039;-65
2021/04/05 02:12:54;;;;;;;33.08;15.93;;;;;;;7.80;53.54;99841.56;5051696;28;20102;-66
2021/04/05 02:15:23;;;;;;;26.38;15.48;;;;;;;7.73;53.01;99833.78;5047235;28;20057;-66
2021/04/05 02:17:48;;;;;;;23.15;14.43;;;;;;;7.80;53.13;99822.31;5051947;28;20052;-66
2021/04/05 02:20:15;;;;;;;22.35;13.80;;;;;;;7.41;55.09;99828.81;5052264;28;20476;-65
2021/04/05 02:22:43;;;;;;;27.90;15.50;;;;;;;8.03;52.67;99824.66;5050357;28;20391;-65
2021/04/05 02:25:16;;;;;;;32.00;16.67;;;;;;;7.89;52.66;99819.59;5051269;28;20033;-65
2021/04/05 02:27:46;;;;;;;25.13;14.88;;;;;;;7.90;53.09;99809.97;5050846;28;20036;-65
2021/04/05 02:30:23;;;;;;;27.73;15.43;;;;;;;7.60;53.99;99798.94;5047795;28;20039;-65
2021/04/05 02:32:55;;;;;;;23.35;14.70;;;;;;;7.87;53.22;99804.75;5046652;28;20025;-66
2021/04/05 02:35:22;;;;;;;29.48;16.20;;;;;;;7.88;53.02;99791.59;5051441;28;20072;-65
2021/04/05 02:37:47;;;;;;;29.35;15.50;;;;;;;8.06;52.52;99798.38;5050584;28;20056;-65
2021/04/05 02:40:13;;;;;;;33.17;15.10;;;;;;;8.07;52.88;99786.97;5050668;28;20032;-65
2021/04/05 02:42:39;;;;;;;25.10;14.77;;;;;;;8.26;52.05;99780.59;5052135;28;20514;-66
2021/04/05 02:45:06;;;;;;;32.78;15.35;;;;;;;7.88;53.16;99777.59;5051896;28;20031;-66
2021/04/05 02:47:32;;;;;;;30.08;17.25;;;;;;;8.01;52.72;99760.81;5050707;28;20029;-66
2021/04/05 02:49:58;;;;;;;31.05;15.25;;;;;;;8.45;51.25;99752.31;5049772;28;20067;-66
2021/04/05 02:52:23;;;;;;;29.23;16.27;;;;;;;8.52;50.28;99750.44;5051674;28;20119;-66
2021/04/05 02:54:49;;;;;;;28.25;15.75;;;;;;;8.20;51.68;99739.50;5051182;28;20059;-66
2021/04/05 02:57:14;;;;;;;31.67;15.93;;;;;;;8.34;51.32;99732.31;5049786;28;20485;-65
2021/04/05 02:59:40;;;;;;;33.50;18.35;;;;;;;8.24;51.15;99725.47;5051502;28;20033;-65
2021/04/05 03:02:06;;;;;;;32.15;16.92;;;;;;;8.01;51.48;99723.16;5050263;28;20029;-66
2021/04/05 03:04:32;;;;;;;31.55;16.25;;;;;;;8.12;51.59;99717.75;5051315;28;20037;-66
2021/04/05 03:06:58;;;;;;;31.52;18.20;;;;;;;8.12;51.72;99730.88;5050252;28;20044;-66
2021/04/05 03:09:23;;;;;;;32.65;16.85;;;;;;;7.87;51.48;99720.72;5051529;28;20373;-65
2021/04/05 03:11:51;;;;;;;32.85;16.50;;;;;;;7.84;52.25;99708.53;5051399;28;20036;-65
2021/04/05 03:14:16;;;;;;;30.75;16.92;;;;;;;8.04;51.77;99696.88;5050323;28;20029;-65
2021/04/05 03:16:42;;;;;;;30.10;16.88;;;;;;;8.03;51.45;99685.47;5051916;28;20306;-65
2021/04/05 03:19:10;;;;;;;38.13;19.88;;;;;;;8.16;50.90;99696.69;5049936;28;20395;-66
2021/04/05 03:21:36;;;;;;;29.02;18.15;;;;;;;8.31;50.27;99692.94;5050119;28;20032;-65
2021/04/05 03:24:02;;;;;;;38.85;19.23;;;;;;;8.00;51.92;99693.41;5049958;28;20036;-65
2021/04/05 03:26:28;;;;;;;34.20;19.42;;;;;;;8.06;51.95;99685.44;5051381;28;20033;-65
2021/04/05 03:28:54;;;;;;;30.63;18.35;;;;;;;8.37;50.62;99684.09;5051034;28;20070;-65
2021/04/05 03:31:20;;;;;;;34.03;19.30;;;;;;;8.09;51.05;99676.66;5049829;28;20428;-66
2021/04/05 03:34:08;;;;;;;33.05;18.30;;;;;;;8.34;50.87;99658.75;5049760;28;20043;-66
2021/04/05 03:36:52;;;;;;;35.92;19.25;;;;;;;8.19;51.15;99669.50;5050123;28;20031;-65
2021/04/05 03:39:18;;;;;;;34.03;19.63;;;;;;;8.58;50.60;99655.78;5048690;28;20108;-66
2021/04/05 03:41:47;;;;;;;34.53;19.08;;;;;;;8.25;51.04;99658.91;5049740;28;20112;-66
2021/04/05 03:44:35;;;;;;;36.42;19.90;;;;;;;7.96;52.15;99639.19;5050892;28;20031;-66
2021/04/05 03:47:16;;;;;;;38.58;21.83;;;;;;;8.03;51.83;99622.47;5083031;28;20032;-66
2021/04/05 03:49:48;;;;;;;34.22;19.65;;;;;;;7.85;51.92;99618.38;5049514;28;20039;-66
2021/04/05 03:52:25;;;;;;;38.83;21.02;;;;;;;8.14;51.88;99613.56;5049249;28;20404;-66
2021/04/05 03:54:54;;;;;;;38.20;21.10;;;;;;;8.13;51.65;99607.41;5050174;28;20033;-66
2021/04/05 03:57:22;;;;;;;30.70;18.35;;;;;;;8.34;51.55;99616.69;5066628;28;20021;-65
2021/04/05 03:59:50;;;;;;;36.40;19.35;;;;;;;7.90;52.38;99623.56;5049078;28;20506;-65
2021/04/05 04:02:18;;;;;;;40.53;19.25;;;;;;;7.92;52.09;99625.25;5049474;28;20171;-65
2021/04/05 04:05:12;;;;;;;40.20;19.75;;;;;;;8.08;51.99;99612.72;5049433;28;20124;-65
2021/04/05 04:07:41;;;;;;;39.35;20.52;;;;;;;8.08;52.52;99602.22;5049949;28;20036;-65
2021/04/05 04:10:11;;;;;;;31.45;17.67;;;;;;;8.02;52.27;99588.34;5051291;28;20040;-65
2021/04/05 04:12:39;;;;;;;44.03;21.23;;;;;;;7.88;52.89;99585.94;5053083;28;20021;-65
2021/04/05 04:15:06;;;;;;;36.13;20.63;;;;;;;7.77;52.91;99565.97;5050798;28;20024;-66
2021/04/05 04:17:33;;;;;;;37.22;20.15;;;;;;;7.58;53.44;99573.25;5053027;28;20036;-66
2021/04/05 04:20:04;;;;;;;33.75;20.20;;;;;;;7.87;53.15;99552.72;5053286;28;20037;-66
2021/04/05 04:22:31;;;;;;;39.05;22.75;;;;;;;7.77;53.19;99558.09;5054997;28;20024;-65
2021/04/05 04:24:58;;;;;;;42.17;22.67;;;;;;;7.96;52.03;99553.41;5052921;28;20496;-66
2021/04/05 04:27:23;;;;;;;47.97;23.73;;;;;;;8.33;51.55;99557.19;5054778;28;20472;-66
2021/04/05 04:29:55;;;;;;;41.03;22.40;;;;;;;8.32;51.65;99552.81;5052861;28;20040;-66
2021/04/05 04:32:21;;;;;;;44.38;23.77;;;;;;;8.29;51.91;99557.25;5052461;28;20041;-66
2021/04/05 04:34:47;;;;;;;44.22;21.95;;;;;;;8.21;51.82;99567.91;5052865;28;20110;-65
2021/04/05 04:37:12;;;;;;;37.60;21.08;;;;;;;8.29;51.68;99558.13;5053317;28;20476;-65
2021/04/05 04:39:38;;;;;;;39.97;22.52;;;;;;;8.09;52.17;99537.44;5053289;28;20082;-65
2021/04/05 04:42:04;;;;;;;36.35;20.10;;;;;;;8.58;51.25;99535.72;5052471;28;20056;-65
2021/04/05 04:44:29;;;;;;;39.90;21.48;;;;;;;8.58;51.01;99538.34;5052376;28;21169;-65
2021/04/05 04:46:55;;;;;;;37.35;20.88;;;;;;;8.36;51.78;99529.13;5051524;28;20490;-66
2021/04/05 04:49:20;;;;;;;37.65;21.33;;;;;;;8.38;51.64;99527.31;5053903;28;20500;-66
2021/04/05 04:51:46;;;;;;;38.67;20.17;;;;;;;8.24;52.53;99528.47;5052880;28;20032;-65
2021/04/05 04:54:11;;;;;;;41.67;22.15;;;;;;;7.96;52.96;99506.16;5052906;28;20396;-65
2021/04/05 04:56:38;;;;;;;42.60;21.88;;;;;;;7.96;52.85;99515.78;5053092;28;20076;-65
2021/04/05 04:59:08;;;;;;;39.65;22.05;;;;;;;8.13;52.57;99502.38;5049360;28;20028;-66
2021/04/05 05:01:35;;;;;;;39.75;20.98;;;;;;;8.42;52.12;99498.34;5052532;28;20392;-66
2021/04/05 05:04:08;;;;;;;38.75;18.75;;;;;;;8.00;52.54;99470.19;5053854;28;20048;-65
2021/04/05 05:06:33;;;;;;;38.40;22.70;;;;;;;8.34;52.21;99474.81;5053838;28;20107;-66
2021/04/05 05:08:59;;;;;;;36.00;21.40;;;;;;;8.44;51.89;99466.78;5052566;28;20100;-65
2021/04/05 05:11:25;;;;;;;33.80;20.23;;;;;;;8.31;52.06;99461.75;5052937;28;20032;-66
2021/04/05 05:13:51;;;;;;;38.47;20.08;;;;;;;8.56;51.73;99468.31;5051025;28;20021;-66
2021/04/05 05:16:16;;;;;;;38.67;20.98;;;;;;;8.65;51.29;99483.03;5051731;28;20032;-66
2021/04/05 05:18:42;;;;;;;41.03;21.38;;;;;;;8.67;51.34;99474.22;5051877;28;20472;-66
2021/04/05 05:21:18;;;;;;;35.92;19.52;;;;;;;8.57;51.95;99465.66;5052220;28;20028;-66
2021/04/05 05:23:44;;;;;;;44.00;22.38;;;;;;;8.77;51.48;99469.63;5051656;28;20100;-66
2021/04/05 05:26:12;;;;;;;35.85;20.55;;;;;;;8.22;52.88;99464.56;5051156;28;20553;-66
2021/04/05 05:28:37;;;;;;;38.30;21.85;;;;;;;8.81;51.74;99468.66;5052316;28;20082;-66
2021/04/05 05:31:03;;;;;;;40.45;21.15;;;;;;;8.84;51.32;99457.25;5051809;28;20025;-66
2021/04/05 05:33:28;;;;;;;32.33;19.92;;;;;;;8.93;51.27;99450.91;5053047;28;20476;-65
2021/04/05 05:35:55;;;;;;;36.83;20.98;;;;;;;8.96;50.99;99441.19;5052125;28;20043;-66
2021/04/05 05:38:22;;;;;;;38.40;21.55;;;;;;;8.39;52.38;99444.97;5051071;28;20025;-66
2021/04/05 05:40:47;;;;;;;36.58;21.10;;;;;;;8.78;51.30;99452.09;5050675;28;20508;-66
2021/04/05 05:43:32;;;;;;;38.72;21.20;;;;;;;8.63;51.98;99437.53;5051866;28;20044;-66
2021/04/05 05:46:20;;;;;;;33.00;18.67;;;;;;;8.68;51.73;99440.94;5064639;28;20083;-66
2021/04/05 05:48:57;;;;;;;34.42;19.35;;;;;;;8.86;51.44;99431.78;5052225;28;20029;-65
2021/04/05 05:51:47;;;;;;;33.17;18.70;;;;;;;8.53;52.38;99432.47;5044298;28;20029;-66
2021/04/05 05:54:24;;;;;;;30.98;19.48;;;;;;;8.90;51.37;99430.81;5051025;28;20029;-65
2021/04/05 05:57:26;;;;;;;35.65;20.60;;;;;;;8.87;51.23;99430.84;5050473;28;20492;-66
2021/04/05 06:00:05;;;;;;;36.78;19.63;;;;;;;8.67;51.80;99432.16;5045237;28;20373;-66
2021/04/05 06:03:08;;;;;;;35.72;19.40;;;;;;;8.69;51.60;99437.38;5051527;28;20504;-65
2021/04/05 06:06:11;;;;;;;33.58;20.00;;;;;;;8.80;51.75;99414.38;5050732;28;20041;-65
2021/04/05 06:08:50;;;;;;;37.47;19.77;;;;;;;8.99;51.10;99400.81;5047963;28;20028;-66
2021/04/05 06:11:24;;;;;;;36.72;20.08;;;;;;;8.95;51.09;99401.78;5051525;28;20083;-66
2021/04/05 06:14:30;;;;;;;31.52;18.92;;;;;;;8.95;51.01;99407.91;5050096;28;20029;-66
2021/04/05 06:17:02;;;;;;;35.58;20.95;;;;;;;9.35;50.11;99387.69;5029290;28;20592;-66
2021/04/05 06:19:37;;;;;;;35.70;19.48;;;;;;;9.16;50.52;99384.63;5046368;28;20091;-65
2021/04/05 06:22:14;;;;;;;34.42;19.45;;;;;;;9.18;50.59;99384.59;5051172;28;20025;-65
2021/04/05 06:24:58;;;;;;;38.25;19.75;;;;;;;9.08;51.03;99387.47;5050895;28;20046;-66
2021/04/05 06:27:50;;;;;;;33.20;19.42;;;;;;;9.32;50.49;99385.13;5052532;28;20129;-65
2021/04/05 06:30:41;;;;;;;30.30;19.02;;;;;;;9.56;49.86;99381.91;5045726;28;20025;-66
2021/04/05 06:33:12;;;;;;;32.50;18.00;;;;;;;9.57;50.14;99363.44;5049957;28;20033;-65
2021/04/05 06:35:59;;;;;;;38.30;20.52;;;;;;;9.76;49.46;99365.59;5050617;28;20099;-65
2021/04/05 06:38:30;;;;;;;33.47;19.52;;;;;;;9.60;49.66;99360.72;5044353;28;20025;-66
2021/04/05 06:40:56;;;;;;;44.13;20.33;;;;;;;9.67;49.97;99360.59;5050583;28;20033;-66
2021/04/05 06:43:45;;;;;;;32.83;20.25;;;;;;;10.03;48.97;99355.19;5050726;28;20055;-66
2021/04/05 06:46:10;;;;;;;31.02;19.08;;;;;;;9.49;50.40;99350.50;5049783;28;20017;-65
2021/04/05 06:49:00;;;;;;;33.43;20.97;;;;;;;9.50;50.48;99341.69;5051223;28;20112;-66
2021/04/05 06:52:19;;;;;;;36.60;18.90;;;;;;;9.58;50.23;99346.75;5050293;28;20560;-66
2021/04/05 06:55:13;;;;;;;32.05;18.80;;;;;;;9.61;50.56;99338.75;5026193;28;20071;-66
2021/04/05 06:58:01;;;;;;;58.45;22.52;;;;;;;9.32;50.78;99329.88;5050929;28;20526;-66
2021/04/05 07:01:04;;;;;;;38.95;20.17;;;;;;;9.33;51.35;99322.81;5032956;28;20035;-66
2021/04/05 07:03:51;;;;;;;36.45;20.88;;;;;;;9.88;49.77;99319.63;5045039;28;20476;-66
2021/04/05 07:06:39;;;;;;;32.63;19.00;;;;;;;9.74;50.09;99333.19;5052148;28;20075;-66
2021/04/05 07:09:30;;;;;;;33.80;19.75;;;;;;;9.74;50.31;99309.50;5050144;28;20061;-66
2021/04/05 07:12:23;;;;;;;43.25;20.77;;;;;;;9.85;49.93;99299.53;5045214;28;20029;-66
2021/04/05 07:15:13;;;;;;;37.70;21.70;;;;;;;9.70;50.58;99302.59;5049573;28;20029;-66
2021/04/05 07:17:50;;;;;;;39.22;21.00;;;;;;;10.09;49.90;99290.94;5051674;28;20449;-66
2021/04/05 07:20:19;;;;;;;33.72;20.05;;;;;;;10.06;49.70;99278.72;5043543;28;20033;-66
2021/04/05 07:23:09;;;;;;;52.80;33.55;;;;;;;10.02;50.44;99285.00;5050873;28;20087;-66
2021/04/05 07:25:52;;;;;;;41.63;26.90;;;;;;;9.99;50.02;99274.53;5051599;28;20029;-66
2021/04/05 07:28:22;;;;;;;39.80;24.20;;;;;;;9.80;50.64;99280.34;5048621;28;20079;-66
2021/04/05 07:30:54;;;;;;;36.83;21.50;;;;;;;9.47;51.63;99273.34;5050149;28;20044;-66
2021/04/05 07:33:29;;;;;;;29.85;19.30;;;;;;;9.67;51.29;99261.38;5050081;28;20271;-66
2021/04/05 07:36:22;;;;;;;35.97;18.98;;;;;;;9.41;51.84;99251.59;5050225;28;20028;-66
2021/04/05 07:39:21;;;;;;;29.60;17.90;;;;;;;9.59;52.22;99231.78;5077734;28;20032;-66
2021/04/05 07:42:01;;;;;;;35.95;20.45;;;;;;;9.91;51.33;99230.00;5083457;28;20025;-66
2021/04/05 07:44:49;;;;;;;45.22;29.27;;;;;;;9.79;51.46;99228.59;5049574;28;20021;-66
2021/04/05 07:47:14;;;;;;;69.00;38.83;;;;;;;10.09;51.11;99223.31;5050085;28;20510;-66
2021/04/05 07:49:55;;;;;;;36.57;18.27;;;;;;;9.99;51.04;99221.88;5051154;28;20029;-66
2021/04/05 07:52:27;;;;;;;43.92;29.30;;;;;;;10.08;51.01;99226.88;5049580;28;20287;-67
2021/04/05 07:54:53;;;;;;;30.70;18.77;;;;;;;9.97;51.17;99226.31;5064336;28;20488;-66
2021/04/05 07:57:23;;;;;;;34.65;20.27;;;;;;;9.96;51.52;99219.31;5049800;28;20115;-66
2021/04/05 07:59:56;;;;;;;42.92;20.75;;;;;;;9.74;52.14;99241.03;5079318;28;20020;-66
2021/04/05 08:02:40;;;;;;;37.35;19.08;;;;;;;10.01;51.52;99235.88;5049654;28;20025;-66
2021/04/05 08:05:42;;;;;;;34.58;19.33;;;;;;;10.01;51.35;99236.72;5051215;28;20017;-66
2021/04/05 08:08:29;;;;;;;35.40;21.33;;;;;;;10.02;51.39;99232.31;5051161;28;20035;-66
2021/04/05 08:11:12;;;;;;;28.52;18.77;;;;;;;9.93;51.88;99224.66;5050739;28;20041;-66
2021/04/05 08:13:46;;;;;;;33.33;18.88;;;;;;;10.16;51.82;99217.84;5046505;28;20464;-66
2021/04/05 08:16:14;;;;;;;32.97;21.17;;;;;;;10.10;51.72;99219.75;5049751;28;20377;-66
2021/04/05 08:19:16;;;;;;;36.97;22.95;;;;;;;9.83;53.07;99221.44;5049856;28;20021;-66
2021/04/05 08:21:50;;;;;;;31.48;21.30;;;;;;;10.12;53.29;99199.53;5047759;28;20051;-66
2021/04/05 08:24:49;;;;;;;33.83;21.48;;;;;;;9.60;55.24;99204.53;5049587;28;20021;-66
2021/04/05 08:27:37;;;;;;;37.42;22.63;;;;;;;9.47;54.58;99209.31;5045078;28;20104;-66
2021/04/05 08:30:12;;;;;;;34.97;20.52;;;;;;;9.71;55.02;99205.09;5048788;28;20017;-66
2021/04/05 08:32:56;;;;;;;43.40;26.08;;;;;;;9.69;55.36;99203.41;5049436;28;20037;-66
2021/04/05 08:35:46;;;;;;;39.70;25.58;;;;;;;10.04;54.19;99204.13;5042718;28;20496;-66
2021/04/05 08:38:33;;;;;;;39.75;20.10;;;;;;;9.77;55.86;99200.59;5048998;28;20037;-66
2021/04/05 08:41:07;;;;;;;41.83;23.92;;;;;;;10.12;55.40;99181.06;5049310;28;20037;-66
2021/04/05 08:44:10;;;;;;;35.38;22.83;;;;;;;9.75;56.29;99195.34;5049597;28;20036;-66
2021/04/05 08:46:35;;;;;;;44.67;30.17;;;;;;;9.67;56.99;99194.72;5050523;28;20052;-66
2021/04/05 08:49:06;;;;;;;39.95;25.27;;;;;;;9.67;56.77;99192.09;5049381;28;20507;-66
2021/04/05 08:51:34;;;;;;;33.28;22.52;;;;;;;9.37;58.16;99203.44;5048620;28;20064;-66
2021/04/05 08:54:05;;;;;;;38.55;21.25;;;;;;;9.74;57.41;99191.84;5049647;28;20392;-66
2021/04/05 08:56:39;;;;;;;36.40;20.38;;;;;;;10.14;56.33;99191.56;5083656;28;20032;-66
2021/04/05 08:59:07;;;;;;;35.47;18.88;;;;;;;10.04;56.70;99185.69;5052853;28;20392;-66
2021/04/05 09:01:43;;;;;;;33.78;19.83;;;;;;;10.03;56.97;99180.50;5052396;28;20029;-66
2021/04/05 09:04:09;;;;;;;43.85;20.63;;;;;;;10.08;57.20;99176.81;5054176;28;20484;-66
2021/04/05 09:06:39;;;;;;;32.55;20.13;;;;;;;9.62;59.18;99190.47;5054883;28;20120;-66
2021/04/05 09:09:05;;;;;;;33.17;20.77;;;;;;;9.63;59.08;99192.19;5052850;28;20029;-66
2021/04/05 09:11:35;;;;;;;42.00;22.02;;;;;;;9.72;58.27;99182.28;5052587;28;20115;-66
2021/04/05 09:14:02;;;;;;;34.45;20.38;;;;;;;10.32;57.50;99176.94;5053734;28;20484;-66
2021/04/05 09:16:39;;;;;;;69.72;44.17;;;;;;;9.52;59.33;99178.47;5054042;28;20312;-66
2021/04/05 09:19:27;;;;;;;32.75;22.30;;;;;;;9.20;59.83;99182.84;5053961;28;20029;-66
2021/04/05 09:22:32;;;;;;;33.13;19.98;;;;;;;9.32;59.63;99179.91;5052388;28;20033;-66
2021/04/05 09:25:12;;;;;;;33.10;20.13;;;;;;;9.65;59.09;99171.06;5051842;28;20029;-66
2021/04/05 09:28:20;;;;;;;34.28;20.13;;;;;;;9.58;58.91;99172.16;5052515;28;20040;-66
2021/04/05 09:31:13;;;;;;;34.65;19.98;;;;;;;9.41;60.18;99168.25;5049050;28;20041;-66
2021/04/05 09:33:48;;;;;;;31.77;20.30;;;;;;;9.24;61.03;99176.63;5023250;28;20049;-66
2021/04/05 09:36:51;;;;;;;30.02;19.08;;;;;;;9.61;60.40;99180.81;5052252;28;20442;-66
2021/04/05 09:39:29;;;;;;;31.00;18.98;;;;;;;9.59;59.73;99166.84;5048250;28;20029;-66
2021/04/05 09:42:13;;;;;;;35.15;19.48;;;;;;;9.30;61.07;99160.66;5083156;28;20102;-66
2021/04/05 09:45:03;;;;;;;33.45;18.90;;;;;;;9.58;60.11;99173.03;5053340;28;20028;-66
2021/04/05 09:47:43;;;;;;;32.95;18.42;;;;;;;9.27;60.30;99150.19;5046620;28;20104;-66
2021/04/05 09:50:32;;;;;;;28.17;18.98;;;;;;;9.33;60.41;99157.06;5068596;28;20079;-66
2021/04/05 09:53:20;;;;;;;28.77;19.30;;;;;;;9.33;60.92;99170.22;5051366;28;20423;-66
2021/04/05 09:55:52;;;;;;;27.20;19.17;;;;;;;9.60;59.81;99168.56;5045286;28;20049;-66
2021/04/05 09:58:36;;;;;;;32.67;19.80;;;;;;;9.59;60.14;99273.91;5051566;28;20116;-66
2021/04/05 10:01:04;;;;;;;10.52;7.22;;;;;;;8.80;58.91;99337.28;5051613;28;20388;-66
2021/04/05 10:03:37;;;;;;;6.07;3.15;;;;;;;7.37;59.25;99343.59;5048128;28;20029;-65
2021/04/05 10:06:04;;;;;;;5.50;3.70;;;;;;;6.79;61.17;99342.75;5051919;28;20402;-65
2021/04/05 10:08:30;;;;;;;3.60;2.55;;;;;;;6.65;61.18;99332.47;5051333;28;20048;-65
2021/04/05 10:10:57;;;;;;;6.07;3.75;;;;;;;6.69;60.87;99346.38;5051633;28;20029;-65
2021/04/05 10:13:26;;;;;;;5.63;4.30;;;;;;;6.16;63.34;99333.97;5051183;28;20492;-65
2021/04/05 10:15:52;;;;;;;2.60;2.40;;;;;;;6.89;61.39;99330.38;5034749;28;20039;-65
2021/04/05 10:18:18;;;;;;;1.88;1.75;;;;;;;6.88;61.98;99335.63;5050989;28;20021;-65
2021/04/05 10:20:47;;;;;;;2.10;1.88;;;;;;;6.82;60.81;99330.47;5051535;28;20040;-65
2021/04/05 10:23:17;;;;;;;1.60;1.50;;;;;;;6.96;59.82;99345.97;5051080;28;20411;-65
2021/04/05 10:25:43;;;;;;;1.63;1.30;;;;;;;6.76;62.84;99352.38;5047496;28;20037;-64
2021/04/05 10:28:14;;;;;;;1.30;1.20;;;;;;;6.76;61.10;99347.16;5051120;28;20025;-65
2021/04/05 10:30:40;;;;;;;1.90;1.70;;;;;;;6.33;62.96;99361.72;5051139;28;20028;-64
2021/04/05 10:33:14;;;;;;;3.20;1.63;;;;;;;6.67;62.69;99358.66;5051115;28;20070;-65
2021/04/05 10:35:47;;;;;;;1.40;1.35;;;;;;;6.40;63.28;99360.72;5051325;28;20031;-65
2021/04/05 10:38:15;;;;;;;1.98;1.88;;;;;;;6.90;63.40;99345.19;5052162;28;20151;-65
2021/04/05 10:40:41;;;;;;;2.00;1.90;;;;;;;7.28;60.61;99355.09;5051138;28;20090;-65
2021/04/05 10:43:11;;;;;;;2.42;2.22;;;;;;;6.98;60.91;99352.94;5050932;28;20657;-65
2021/04/05 10:45:38;;;;;;;2.97;2.78;;;;;;;6.53;63.15;99375.41;5050619;28;20087;-65
2021/04/05 10:48:21;;;;;;;1.92;1.83;;;;;;;6.41;63.00;99368.56;5034218;28;20074;-65
2021/04/05 10:50:58;;;;;;;3.47;3.13;;;;;;;7.57;59.57;99359.84;5050855;28;20094;-65
2021/04/05 10:53:26;;;;;;;4.63;3.42;;;;;;;7.19;61.51;99356.09;5050731;28;20021;-65
2021/04/05 10:55:55;;;;;;;3.25;2.80;;;;;;;7.39;59.57;99360.16;5076612;28;20460;-65
2021/04/05 10:58:25;;;;;;;3.30;2.53;;;;;;;7.54;59.97;99366.91;5050533;28;20548;-65
2021/04/05 11:00:54;;;;;;;3.10;2.17;;;;;;;7.73;58.79;99361.34;5030784;28;20029;-65
2021/04/05 11:03:23;;;;;;;3.70;2.33;;;;;;;8.05;58.69;99358.09;5050398;28;20129;-65
2021/04/05 11:05:54;;;;;;;2.40;2.10;;;;;;;7.86;57.49;99343.56;5050788;28;20041;-65
2021/04/05 11:08:21;;;;;;;1.60;1.50;;;;;;;7.41;58.98;99340.03;5050538;28;20476;-65
2021/04/05 11:10:47;;;;;;;1.58;1.20;;;;;;;7.66;58.52;99342.19;5033895;28;20564;-65
2021/04/05 11:13:16;;;;;;;1.73;1.63;;;;;;;8.06;57.92;99336.19;5050314;28;20103;-65
2021/04/05 11:15:44;;;;;;;1.48;1.38;;;;;;;7.84;58.72;99346.25;5050718;28;20025;-65
2021/04/05 11:18:12;;;;;;;2.28;1.65;;;;;;;7.68;59.57;99348.28;5049827;28;20480;-66
2021/04/05 11:20:39;;;;;;;1.60;1.33;;;;;;;7.55;60.17;99352.88;5050303;28;20024;-66
2021/04/05 11:23:16;;;;;;;1.40;1.30;;;;;;;8.15;59.32;99352.63;5050815;28;20029;-65
2021/04/05 11:25:47;;;;;;;3.28;1.50;;;;;;;8.29;58.48;99350.59;5050929;28;20028;-65
2021/04/05 11:28:27;;;;;;;1.60;1.50;;;;;;;8.21;57.37;99357.78;5049618;28;20115;-66
2021/04/05 11:30:59;;;;;;;1.67;1.58;;;;;;;8.20;59.20;99345.50;5051425;28;20033;-66
2021/04/05 11:33:27;;;;;;;1.85;1.50;;;;;;;8.60;57.80;99344.69;5051365;28;20504;-65
2021/04/05 11:35:54;;;;;;;1.40;1.40;;;;;;;8.89;56.93;99347.56;5050259;28;20512;-65
2021/04/05 11:38:21;;;;;;;1.88;1.77;;;;;;;8.80;57.96;99340.75;5049849;28;20036;-66
2021/04/05 11:40:56;;;;;;;3.13;2.05;;;;;;;9.20;57.21;99335.41;5049905;28;20071;-66
2021/04/05 11:43:28;;;;;;;3.10;2.50;;;;;;;9.23;54.59;99324.81;5051200;28;20033;-66
2021/04/05 11:45:54;;;;;;;4.50;2.35;;;;;;;7.45;59.66;99336.44;5050366;28;20099;-66
2021/04/05 11:48:21;;;;;;;2.60;2.40;;;;;;;7.96;58.01;99337.25;5049951;28;20111;-66
2021/04/05 11:50:48;;;;;;;2.30;2.08;;;;;;;8.31;58.50;99335.66;5049665;28;20079;-66
2021/04/05 11:53:22;;;;;;;1.70;1.60;;;;;;;8.18;58.65;99331.56;5049790;28;20028;-65
2021/04/05 11:55:50;;;;;;;1.67;1.58;;;;;;;8.62;56.60;99335.91;5050025;28;20032;-65